This is the latest recevied weather packets stored in our database for station/object W5HKR. If no packets are shown the sender has not sent any weather packets the latest 1 day(s).
| Time | Temp. | Humidity | Pressure | Rain* | Wind** | Luminosity | Snow |
|---|---|---|---|---|---|---|---|
| 1778011705 | 30° C | 66% | 979.2 hPa | 0 mm | 6.71 m/s, 268° | - | - |
| 1778011407 | 30° C | 68% | 979.1 hPa | 0 mm | 6.26 m/s, 269° | - | - |
| 1778011077 | 30° C | 67% | 978.8 hPa | 0 mm | 5.81 m/s, 274° | - | - |
| 1778010805 | 30° C | 68% | 979.5 hPa | 0 mm | 6.26 m/s, 267° | - | - |
| 1778010206 | 29.44° C | 67% | 979.3 hPa | 0 mm | 6.26 m/s, 273° | - | - |
| 1778010001 | 29.44° C | 67% | 979.6 hPa | 0 mm | 6.26 m/s, 270° | - | - |
| 1778009907 | 18.33° C | 91% | 990.6 hPa | 0 mm | 6.26 m/s, 266° | - | - |
| 1778009606 | 29.44° C | 67% | 979.4 hPa | 0 mm | 6.71 m/s, 270° | - | - |
| 1778009005 | 18.33° C | 91% | 990.6 hPa | 0 mm | 6.26 m/s, 273° | - | - |
| 1778008917 | 18.33° C | 91% | 990.6 hPa | 0 mm | 6.26 m/s, 268° | - | - |
| 1778008706 | 18.33° C | 91% | 990.6 hPa | 0 mm | 6.26 m/s, 268° | - | - |
| 1778008405 | 28.33° C | 71% | 980 hPa | 0 mm | 6.26 m/s, 267° | - | - |
| 1778008106 | 18.33° C | 91% | 990.6 hPa | 0 mm | 5.81 m/s, 267° | - | - |
| 1778007836 | 18.33° C | 91% | 990.6 hPa | 0 mm | 6.26 m/s, 268° | - | - |
| 1778007806 | 18.33° C | 91% | 990.6 hPa | 0 mm | 6.26 m/s, 268° | - | - |
| 1778007505 | 28.33° C | 71% | 980.6 hPa | 0 mm | 6.26 m/s, 267° | - | - |
| 1778007206 | 18.33° C | 91% | 990.6 hPa | 0 mm | 6.26 m/s, 268° | - | - |
| 1778006905 | 18.33° C | 91% | 990.6 hPa | 0 mm | 6.26 m/s, 267° | - | - |
| 1778006757 | 27.78° C | 73% | 980 hPa | 0 mm | 6.26 m/s, 269° | - | - |
| 1778006605 | 27.78° C | 73% | 980.4 hPa | 0 mm | 6.26 m/s, 267° | - | - |
| 1778006306 | 27.22° C | 74% | 980.4 hPa | 0 mm | 5.81 m/s, 268° | - | - |
| 1778006006 | 18.33° C | 91% | 990.6 hPa | 0 mm | 6.26 m/s, 267° | - | - |
| 1778005677 | 27.22° C | 73% | 980.4 hPa | 0 mm | 6.26 m/s, 268° | - | - |
| 1778005407 | 27.22° C | 75% | 980.7 hPa | 0 mm | 5.81 m/s, 268° | - | - |
| 1778005107 | 18.33° C | 91% | 990.6 hPa | 0 mm | 5.81 m/s, 267° | - | - |
* Rain latest hour (hover to see other rain measurements)
** Current wind speed in m/s (hover to see current wind gust speed)